sensor_id;sensor_type;location;lat;lon;timestamp;P1;durP1;ratioP1;P2;durP2;ratioP2
63653;SDS011;49809;47.418;19.080;2022-07-22T00:00:09;1.45;;;1.12;;
63653;SDS011;49809;47.418;19.080;2022-07-22T00:03:13;1.42;;;1.27;;
63653;SDS011;49809;47.418;19.080;2022-07-22T00:06:16;1.90;;;1.42;;
63653;SDS011;49809;47.418;19.080;2022-07-22T00:09:20;2.53;;;1.20;;
63653;SDS011;49809;47.418;19.080;2022-07-22T00:12:31;2.62;;;1.42;;
63653;SDS011;49809;47.418;19.080;2022-07-22T00:15:39;2.12;;;1.40;;
63653;SDS011;49809;47.418;19.080;2022-07-22T00:18:42;2.10;;;1.40;;
63653;SDS011;49809;47.418;19.080;2022-07-22T00:21:47;1.62;;;1.30;;
63653;SDS011;49809;47.418;19.080;2022-07-22T00:24:58;1.98;;;1.37;;
63653;SDS011;49809;47.418;19.080;2022-07-22T00:28:09;1.60;;;0.90;;
63653;SDS011;49809;47.418;19.080;2022-07-22T00:31:12;1.42;;;1.23;;
63653;SDS011;49809;47.418;19.080;2022-07-22T00:34:14;1.58;;;1.10;;
63653;SDS011;49809;47.418;19.080;2022-07-22T00:37:19;3.92;;;1.58;;
63653;SDS011;49809;47.418;19.080;2022-07-22T00:46:58;1.85;;;1.08;;
63653;SDS011;49809;47.418;19.080;2022-07-22T00:50:03;1.08;;;0.98;;
63653;SDS011;49809;47.418;19.080;2022-07-22T00:53:12;2.95;;;1.30;;
63653;SDS011;49809;47.418;19.080;2022-07-22T00:56:18;3.05;;;1.20;;
63653;SDS011;49809;47.418;19.080;2022-07-22T00:59:30;1.20;;;1.10;;
63653;SDS011;49809;47.418;19.080;2022-07-22T01:02:35;1.75;;;1.15;;
63653;SDS011;49809;47.418;19.080;2022-07-22T01:05:38;1.65;;;1.20;;
63653;SDS011;49809;47.418;19.080;2022-07-22T01:08:41;1.37;;;1.02;;
63653;SDS011;49809;47.418;19.080;2022-07-22T01:11:45;1.40;;;1.17;;
63653;SDS011;49809;47.418;19.080;2022-07-22T01:14:48;3.58;;;1.20;;
63653;SDS011;49809;47.418;19.080;2022-07-22T01:17:55;2.05;;;1.25;;
63653;SDS011;49809;47.418;19.080;2022-07-22T01:20:58;1.48;;;1.20;;
63653;SDS011;49809;47.418;19.080;2022-07-22T01:24:05;1.20;;;0.80;;
63653;SDS011;49809;47.418;19.080;2022-07-22T01:27:07;1.50;;;1.25;;
63653;SDS011;49809;47.418;19.080;2022-07-22T01:30:13;1.35;;;1.17;;
63653;SDS011;49809;47.418;19.080;2022-07-22T01:33:24;2.90;;;1.30;;
63653;SDS011;49809;47.418;19.080;2022-07-22T01:36:26;2.15;;;1.60;;
63653;SDS011;49809;47.418;19.080;2022-07-22T01:39:31;1.90;;;1.12;;
63653;SDS011;49809;47.418;19.080;2022-07-22T01:42:37;3.28;;;1.80;;
63653;SDS011;49809;47.418;19.080;2022-07-22T01:45:40;1.52;;;1.23;;
63653;SDS011;49809;47.418;19.080;2022-07-22T01:48:47;2.15;;;1.45;;
63653;SDS011;49809;47.418;19.080;2022-07-22T01:51:57;3.03;;;1.37;;
63653;SDS011;49809;47.418;19.080;2022-07-22T01:55:02;2.25;;;1.50;;
63653;SDS011;49809;47.418;19.080;2022-07-22T01:58:07;2.97;;;1.40;;
63653;SDS011;49809;47.418;19.080;2022-07-22T02:01:13;1.77;;;1.47;;
63653;SDS011;49809;47.418;19.080;2022-07-22T02:04:17;1.45;;;1.30;;
63653;SDS011;49809;47.418;19.080;2022-07-22T02:07:31;1.67;;;1.52;;
63653;SDS011;49809;47.418;19.080;2022-07-22T02:10:35;2.50;;;1.60;;
63653;SDS011;49809;47.418;19.080;2022-07-22T02:13:39;2.37;;;1.65;;
63653;SDS011;49809;47.418;19.080;2022-07-22T02:16:43;3.05;;;1.80;;
63653;SDS011;49809;47.418;19.080;2022-07-22T02:19:47;1.98;;;1.58;;
63653;SDS011;49809;47.418;19.080;2022-07-22T02:22:50;1.90;;;1.50;;
63653;SDS011;49809;47.418;19.080;2022-07-22T02:25:53;3.05;;;1.75;;
63653;SDS011;49809;47.418;19.080;2022-07-22T02:29:05;2.08;;;1.67;;
63653;SDS011;49809;47.418;19.080;2022-07-22T02:32:10;2.42;;;1.80;;
63653;SDS011;49809;47.418;19.080;2022-07-22T02:35:13;4.22;;;1.40;;
63653;SDS011;49809;47.418;19.080;2022-07-22T02:38:17;2.08;;;1.55;;
63653;SDS011;49809;47.418;19.080;2022-07-22T02:41:20;2.15;;;1.80;;
63653;SDS011;49809;47.418;19.080;2022-07-22T02:44:23;2.22;;;1.40;;
63653;SDS011;49809;47.418;19.080;2022-07-22T02:50:38;1.95;;;1.60;;
63653;SDS011;49809;47.418;19.080;2022-07-22T02:53:47;3.15;;;1.60;;
63653;SDS011;49809;47.418;19.080;2022-07-22T02:56:52;2.33;;;1.62;;
63653;SDS011;49809;47.418;19.080;2022-07-22T02:59:58;2.22;;;1.60;;
63653;SDS011;49809;47.418;19.080;2022-07-22T03:03:07;2.95;;;1.67;;
63653;SDS011;49809;47.418;19.080;2022-07-22T03:06:13;2.87;;;1.90;;
63653;SDS011;49809;47.418;19.080;2022-07-22T03:09:19;2.50;;;1.80;;
63653;SDS011;49809;47.418;19.080;2022-07-22T03:12:21;3.12;;;1.70;;
63653;SDS011;49809;47.418;19.080;2022-07-22T03:15:27;4.28;;;1.77;;
63653;SDS011;49809;47.418;19.080;2022-07-22T03:18:34;1.90;;;1.58;;
63653;SDS011;49809;47.418;19.080;2022-07-22T03:21:37;2.27;;;1.80;;
63653;SDS011;49809;47.418;19.080;2022-07-22T03:24:44;2.90;;;2.08;;
63653;SDS011;49809;47.418;19.080;2022-07-22T03:27:48;2.72;;;1.83;;
63653;SDS011;49809;47.418;19.080;2022-07-22T03:30:53;1.90;;;1.52;;
63653;SDS011;49809;47.418;19.080;2022-07-22T03:33:56;2.20;;;1.52;;
63653;SDS011;49809;47.418;19.080;2022-07-22T03:37:00;1.98;;;1.52;;
63653;SDS011;49809;47.418;19.080;2022-07-22T03:40:03;2.95;;;1.55;;
63653;SDS011;49809;47.418;19.080;2022-07-22T03:43:07;3.75;;;1.80;;
63653;SDS011;49809;47.418;19.080;2022-07-22T03:46:14;2.35;;;1.58;;
63653;SDS011;49809;47.418;19.080;2022-07-22T03:49:18;2.00;;;1.70;;
63653;SDS011;49809;47.418;19.080;2022-07-22T03:52:20;5.87;;;1.60;;
63653;SDS011;49809;47.418;19.080;2022-07-22T03:55:24;2.92;;;1.60;;
63653;SDS011;49809;47.418;19.080;2022-07-22T03:58:27;5.80;;;1.98;;
63653;SDS011;49809;47.418;19.080;2022-07-22T04:01:36;2.37;;;1.60;;
63653;SDS011;49809;47.418;19.080;2022-07-22T04:04:42;1.60;;;1.50;;
63653;SDS011;49809;47.418;19.080;2022-07-22T04:07:45;2.47;;;1.42;;
63653;SDS011;49809;47.418;19.080;2022-07-22T04:10:48;2.05;;;1.50;;
63653;SDS011;49809;47.418;19.080;2022-07-22T04:14:02;2.20;;;1.60;;
63653;SDS011;49809;47.418;19.080;2022-07-22T04:17:05;5.80;;;1.70;;
63653;SDS011;49809;47.418;19.080;2022-07-22T04:20:19;1.67;;;1.40;;
63653;SDS011;49809;47.418;19.080;2022-07-22T04:23:30;1.67;;;1.23;;
63653;SDS011;49809;47.418;19.080;2022-07-22T04:26:33;1.85;;;1.23;;
63653;SDS011;49809;47.418;19.080;2022-07-22T04:29:36;1.80;;;1.15;;
63653;SDS011;49809;47.418;19.080;2022-07-22T04:32:44;3.42;;;1.35;;
63653;SDS011;49809;47.418;19.080;2022-07-22T04:35:49;3.90;;;1.23;;
63653;SDS011;49809;47.418;19.080;2022-07-22T04:38:59;1.73;;;1.30;;
63653;SDS011;49809;47.418;19.080;2022-07-22T04:42:05;4.00;;;1.47;;
63653;SDS011;49809;47.418;19.080;2022-07-22T04:45:11;1.67;;;1.50;;
63653;SDS011;49809;47.418;19.080;2022-07-22T04:48:14;2.83;;;1.87;;
63653;SDS011;49809;47.418;19.080;2022-07-22T04:51:19;3.65;;;1.83;;
63653;SDS011;49809;47.418;19.080;2022-07-22T04:54:25;5.47;;;1.70;;
63653;SDS011;49809;47.418;19.080;2022-07-22T04:57:32;1.92;;;1.50;;
63653;SDS011;49809;47.418;19.080;2022-07-22T05:00:38;1.58;;;1.40;;
63653;SDS011;49809;47.418;19.080;2022-07-22T05:03:40;1.75;;;1.30;;
63653;SDS011;49809;47.418;19.080;2022-07-22T05:06:46;2.90;;;1.73;;
63653;SDS011;49809;47.418;19.080;2022-07-22T05:09:49;2.25;;;1.50;;
63653;SDS011;49809;47.418;19.080;2022-07-22T05:12:59;1.98;;;1.33;;
63653;SDS011;49809;47.418;19.080;2022-07-22T05:16:06;2.58;;;1.48;;
63653;SDS011;49809;47.418;19.080;2022-07-22T05:19:11;1.90;;;1.50;;
63653;SDS011;49809;47.418;19.080;2022-07-22T05:22:14;2.53;;;1.30;;
63653;SDS011;49809;47.418;19.080;2022-07-22T05:25:21;2.72;;;1.25;;
63653;SDS011;49809;47.418;19.080;2022-07-22T05:28:23;1.55;;;1.10;;
63653;SDS011;49809;47.418;19.080;2022-07-22T05:31:28;2.28;;;1.42;;
63653;SDS011;49809;47.418;19.080;2022-07-22T05:34:31;3.65;;;1.42;;
63653;SDS011;49809;47.418;19.080;2022-07-22T05:37:37;3.12;;;1.70;;
63653;SDS011;49809;47.418;19.080;2022-07-22T05:40:41;1.67;;;1.35;;
63653;SDS011;49809;47.418;19.080;2022-07-22T05:43:45;2.30;;;1.62;;
63653;SDS011;49809;47.418;19.080;2022-07-22T05:46:53;2.78;;;1.33;;
63653;SDS011;49809;47.418;19.080;2022-07-22T05:49:58;1.52;;;1.30;;
63653;SDS011;49809;47.418;19.080;2022-07-22T05:53:01;1.60;;;1.10;;
63653;SDS011;49809;47.418;19.080;2022-07-22T05:56:08;1.30;;;1.20;;
63653;SDS011;49809;47.418;19.080;2022-07-22T05:59:17;1.87;;;1.30;;
63653;SDS011;49809;47.418;19.080;2022-07-22T06:02:23;2.28;;;1.50;;
63653;SDS011;49809;47.418;19.080;2022-07-22T06:05:31;1.83;;;1.17;;
63653;SDS011;49809;47.418;19.080;2022-07-22T06:08:39;1.23;;;1.08;;
63653;SDS011;49809;47.418;19.080;2022-07-22T06:11:48;1.45;;;1.02;;
63653;SDS011;49809;47.418;19.080;2022-07-22T06:15:10;1.02;;;0.93;;
63653;SDS011;49809;47.418;19.080;2022-07-22T06:18:14;1.80;;;1.35;;
63653;SDS011;49809;47.418;19.080;2022-07-22T06:21:17;1.12;;;1.00;;
63653;SDS011;49809;47.418;19.080;2022-07-22T06:24:23;1.62;;;1.10;;
63653;SDS011;49809;47.418;19.080;2022-07-22T06:27:31;3.33;;;1.00;;
63653;SDS011;49809;47.418;19.080;2022-07-22T06:30:34;4.10;;;1.30;;
63653;SDS011;49809;47.418;19.080;2022-07-22T06:33:40;1.85;;;1.10;;
63653;SDS011;49809;47.418;19.080;2022-07-22T06:36:46;1.45;;;0.88;;
63653;SDS011;49809;47.418;19.080;2022-07-22T06:39:48;2.60;;;1.20;;
63653;SDS011;49809;47.418;19.080;2022-07-22T06:42:52;1.87;;;0.90;;
63653;SDS011;49809;47.418;19.080;2022-07-22T06:45:56;1.50;;;0.90;;
63653;SDS011;49809;47.418;19.080;2022-07-22T06:49:00;1.10;;;1.00;;
63653;SDS011;49809;47.418;19.080;2022-07-22T06:52:03;1.95;;;1.10;;
63653;SDS011;49809;47.418;19.080;2022-07-22T06:55:09;1.50;;;1.37;;
63653;SDS011;49809;47.418;19.080;2022-07-22T06:58:15;1.42;;;1.27;;
63653;SDS011;49809;47.418;19.080;2022-07-22T07:01:44;2.62;;;1.40;;
63653;SDS011;49809;47.418;19.080;2022-07-22T07:04:49;2.53;;;1.00;;
63653;SDS011;49809;47.418;19.080;2022-07-22T07:07:54;2.47;;;1.00;;
63653;SDS011;49809;47.418;19.080;2022-07-22T07:11:12;1.90;;;1.00;;
63653;SDS011;49809;47.418;19.080;2022-07-22T07:14:16;1.40;;;1.00;;
63653;SDS011;49809;47.418;19.080;2022-07-22T07:17:24;1.70;;;0.90;;
63653;SDS011;49809;47.418;19.080;2022-07-22T07:20:29;1.30;;;0.95;;
63653;SDS011;49809;47.418;19.080;2022-07-22T07:23:38;2.87;;;1.33;;
63653;SDS011;49809;47.418;19.080;2022-07-22T07:26:46;1.27;;;1.10;;
63653;SDS011;49809;47.418;19.080;2022-07-22T07:29:52;1.80;;;0.90;;
63653;SDS011;49809;47.418;19.080;2022-07-22T07:33:06;1.77;;;1.00;;
63653;SDS011;49809;47.418;19.080;2022-07-22T07:36:09;2.33;;;1.23;;
63653;SDS011;49809;47.418;19.080;2022-07-22T07:39:33;1.60;;;0.90;;
63653;SDS011;49809;47.418;19.080;2022-07-22T07:42:40;2.90;;;1.00;;
63653;SDS011;49809;47.418;19.080;2022-07-22T07:46:04;2.22;;;0.93;;
63653;SDS011;49809;47.418;19.080;2022-07-22T07:49:12;1.25;;;0.93;;
63653;SDS011;49809;47.418;19.080;2022-07-22T07:52:16;0.93;;;0.90;;
63653;SDS011;49809;47.418;19.080;2022-07-22T07:55:21;1.33;;;1.10;;
63653;SDS011;49809;47.418;19.080;2022-07-22T07:58:27;1.35;;;1.00;;
63653;SDS011;49809;47.418;19.080;2022-07-22T08:01:48;1.02;;;0.93;;
63653;SDS011;49809;47.418;19.080;2022-07-22T08:05:23;1.67;;;1.15;;
63653;SDS011;49809;47.418;19.080;2022-07-22T08:11:58;1.62;;;0.95;;
63653;SDS011;49809;47.418;19.080;2022-07-22T08:15:16;1.20;;;0.95;;
63653;SDS011;49809;47.418;19.080;2022-07-22T08:18:20;1.15;;;0.80;;
63653;SDS011;49809;47.418;19.080;2022-07-22T08:24:55;2.20;;;0.90;;
63653;SDS011;49809;47.418;19.080;2022-07-22T08:28:02;1.12;;;0.93;;
63653;SDS011;49809;47.418;19.080;2022-07-22T08:31:08;2.22;;;1.00;;
63653;SDS011;49809;47.418;19.080;2022-07-22T08:34:12;1.37;;;1.02;;
63653;SDS011;49809;47.418;19.080;2022-07-22T08:37:18;2.05;;;1.00;;
63653;SDS011;49809;47.418;19.080;2022-07-22T08:40:22;2.70;;;1.10;;
63653;SDS011;49809;47.418;19.080;2022-07-22T08:43:28;1.70;;;1.10;;
63653;SDS011;49809;47.418;19.080;2022-07-22T08:46:31;1.65;;;1.20;;
63653;SDS011;49809;47.418;19.080;2022-07-22T08:49:50;1.27;;;1.05;;
63653;SDS011;49809;47.418;19.080;2022-07-22T08:52:54;2.22;;;1.20;;
63653;SDS011;49809;47.418;19.080;2022-07-22T08:55:58;1.42;;;1.30;;
63653;SDS011;49809;47.418;19.080;2022-07-22T08:59:04;1.02;;;0.90;;
63653;SDS011;49809;47.418;19.080;2022-07-22T09:02:09;5.03;;;1.17;;
63653;SDS011;49809;47.418;19.080;2022-07-22T09:05:15;0.95;;;0.88;;
63653;SDS011;49809;47.418;19.080;2022-07-22T09:12:18;1.10;;;1.00;;
63653;SDS011;49809;47.418;19.080;2022-07-22T09:15:25;2.25;;;1.27;;
63653;SDS011;49809;47.418;19.080;2022-07-22T09:18:50;1.45;;;1.02;;
63653;SDS011;49809;47.418;19.080;2022-07-22T09:21:55;1.17;;;1.08;;
63653;SDS011;49809;47.418;19.080;2022-07-22T09:28:23;1.42;;;1.20;;
63653;SDS011;49809;47.418;19.080;2022-07-22T09:31:35;1.15;;;1.05;;
63653;SDS011;49809;47.418;19.080;2022-07-22T09:34:43;2.62;;;1.00;;
63653;SDS011;49809;47.418;19.080;2022-07-22T09:37:47;1.17;;;1.00;;
63653;SDS011;49809;47.418;19.080;2022-07-22T09:40:57;6.03;;;1.37;;
63653;SDS011;49809;47.418;19.080;2022-07-22T09:44:20;1.30;;;1.20;;
63653;SDS011;49809;47.418;19.080;2022-07-22T09:47:41;1.60;;;1.30;;
63653;SDS011;49809;47.418;19.080;2022-07-22T09:50:46;1.23;;;1.12;;
63653;SDS011;49809;47.418;19.080;2022-07-22T09:53:53;1.60;;;1.45;;
63653;SDS011;49809;47.418;19.080;2022-07-22T09:56:59;1.30;;;1.20;;
63653;SDS011;49809;47.418;19.080;2022-07-22T10:00:03;2.22;;;1.10;;
63653;SDS011;49809;47.418;19.080;2022-07-22T10:03:17;1.50;;;1.40;;
63653;SDS011;49809;47.418;19.080;2022-07-22T10:06:28;2.00;;;1.50;;
63653;SDS011;49809;47.418;19.080;2022-07-22T10:09:33;2.12;;;1.40;;
63653;SDS011;49809;47.418;19.080;2022-07-22T10:12:39;1.58;;;1.40;;
63653;SDS011;49809;47.418;19.080;2022-07-22T10:15:43;1.58;;;1.30;;
63653;SDS011;49809;47.418;19.080;2022-07-22T10:18:47;1.87;;;1.52;;
63653;SDS011;49809;47.418;19.080;2022-07-22T10:21:54;1.40;;;1.30;;
63653;SDS011;49809;47.418;19.080;2022-07-22T10:25:00;3.03;;;1.77;;
63653;SDS011;49809;47.418;19.080;2022-07-22T10:28:09;2.95;;;1.73;;
63653;SDS011;49809;47.418;19.080;2022-07-22T10:31:29;2.20;;;1.48;;
63653;SDS011;49809;47.418;19.080;2022-07-22T10:37:37;1.95;;;1.50;;
63653;SDS011;49809;47.418;19.080;2022-07-22T10:40:56;1.77;;;1.67;;
63653;SDS011;49809;47.418;19.080;2022-07-22T10:44:11;4.40;;;1.80;;
63653;SDS011;49809;47.418;19.080;2022-07-22T10:47:15;1.70;;;1.60;;
63653;SDS011;49809;47.418;19.080;2022-07-22T10:54:00;1.75;;;1.65;;
63653;SDS011;49809;47.418;19.080;2022-07-22T10:57:05;3.30;;;1.87;;
63653;SDS011;49809;47.418;19.080;2022-07-22T11:00:09;1.95;;;1.85;;
63653;SDS011;49809;47.418;19.080;2022-07-22T11:03:13;2.25;;;1.73;;
63653;SDS011;49809;47.418;19.080;2022-07-22T11:06:30;2.05;;;1.80;;
63653;SDS011;49809;47.418;19.080;2022-07-22T11:09:36;3.42;;;1.70;;
63653;SDS011;49809;47.418;19.080;2022-07-22T11:12:39;1.47;;;1.37;;
63653;SDS011;49809;47.418;19.080;2022-07-22T11:15:44;3.10;;;2.00;;
63653;SDS011;49809;47.418;19.080;2022-07-22T11:18:51;2.35;;;2.12;;
63653;SDS011;49809;47.418;19.080;2022-07-22T11:21:59;2.03;;;1.92;;
63653;SDS011;49809;47.418;19.080;2022-07-22T11:25:09;1.87;;;1.70;;
63653;SDS011;49809;47.418;19.080;2022-07-22T11:28:16;2.03;;;1.90;;
63653;SDS011;49809;47.418;19.080;2022-07-22T11:31:22;2.08;;;1.77;;
63653;SDS011;49809;47.418;19.080;2022-07-22T11:34:28;3.22;;;1.80;;
63653;SDS011;49809;47.418;19.080;2022-07-22T11:37:33;2.33;;;2.20;;
63653;SDS011;49809;47.418;19.080;2022-07-22T11:40:38;3.50;;;1.90;;
63653;SDS011;49809;47.418;19.080;2022-07-22T11:43:44;2.60;;;2.20;;
63653;SDS011;49809;47.418;19.080;2022-07-22T11:47:07;3.35;;;2.40;;
63653;SDS011;49809;47.418;19.080;2022-07-22T11:57:47;2.47;;;2.28;;
63653;SDS011;49809;47.418;19.080;2022-07-22T12:00:58;2.30;;;2.20;;
63653;SDS011;49809;47.418;19.080;2022-07-22T12:04:06;2.20;;;2.10;;
63653;SDS011;49809;47.418;19.080;2022-07-22T12:18:11;2.62;;;2.42;;
63653;SDS011;49809;47.418;19.080;2022-07-22T12:21:22;2.78;;;2.58;;
63653;SDS011;49809;47.418;19.080;2022-07-22T12:24:31;3.05;;;2.67;;
63653;SDS011;49809;47.418;19.080;2022-07-22T12:28:04;2.65;;;2.45;;
63653;SDS011;49809;47.418;19.080;2022-07-22T13:07:33;2.95;;;2.03;;
63653;SDS011;49809;47.418;19.080;2022-07-22T13:10:41;2.28;;;2.08;;
63653;SDS011;49809;47.418;19.080;2022-07-22T13:13:45;2.55;;;2.00;;
63653;SDS011;49809;47.418;19.080;2022-07-22T13:16:56;2.85;;;2.30;;
63653;SDS011;49809;47.418;19.080;2022-07-22T13:20:00;2.97;;;2.00;;
63653;SDS011;49809;47.418;19.080;2022-07-22T13:30:43;2.78;;;2.15;;
63653;SDS011;49809;47.418;19.080;2022-07-22T13:37:28;4.22;;;2.00;;
63653;SDS011;49809;47.418;19.080;2022-07-22T13:47:14;3.87;;;2.35;;
63653;SDS011;49809;47.418;19.080;2022-07-22T13:50:34;2.20;;;2.00;;
63653;SDS011;49809;47.418;19.080;2022-07-22T14:05:00;2.25;;;2.00;;
63653;SDS011;49809;47.418;19.080;2022-07-22T14:23:21;5.53;;;2.62;;
63653;SDS011;49809;47.418;19.080;2022-07-22T14:26:28;2.20;;;2.03;;
63653;SDS011;49809;47.418;19.080;2022-07-22T14:29:32;2.40;;;2.20;;
63653;SDS011;49809;47.418;19.080;2022-07-22T14:32:36;3.80;;;2.30;;
63653;SDS011;49809;47.418;19.080;2022-07-22T14:35:39;3.03;;;2.20;;
63653;SDS011;49809;47.418;19.080;2022-07-22T14:38:54;6.45;;;2.00;;
63653;SDS011;49809;47.418;19.080;2022-07-22T14:46:02;4.25;;;2.40;;
63653;SDS011;49809;47.418;19.080;2022-07-22T14:49:15;2.70;;;2.00;;
63653;SDS011;49809;47.418;19.080;2022-07-22T14:52:18;2.60;;;2.03;;
63653;SDS011;49809;47.418;19.080;2022-07-22T14:55:22;5.50;;;2.20;;
63653;SDS011;49809;47.418;19.080;2022-07-22T14:58:29;2.12;;;1.92;;
63653;SDS011;49809;47.418;19.080;2022-07-22T15:01:34;2.33;;;2.12;;
63653;SDS011;49809;47.418;19.080;2022-07-22T15:04:37;2.92;;;2.33;;
63653;SDS011;49809;47.418;19.080;2022-07-22T15:07:42;2.17;;;2.00;;
63653;SDS011;49809;47.418;19.080;2022-07-22T15:10:52;2.30;;;2.10;;
63653;SDS011;49809;47.418;19.080;2022-07-22T15:13:55;2.37;;;2.00;;
63653;SDS011;49809;47.418;19.080;2022-07-22T15:16:58;2.83;;;1.90;;
63653;SDS011;49809;47.418;19.080;2022-07-22T15:20:02;3.03;;;2.53;;
63653;SDS011;49809;47.418;19.080;2022-07-22T15:23:06;2.60;;;2.23;;
63653;SDS011;49809;47.418;19.080;2022-07-22T15:26:10;4.80;;;2.57;;
63653;SDS011;49809;47.418;19.080;2022-07-22T15:32:24;3.83;;;2.45;;
63653;SDS011;49809;47.418;19.080;2022-07-22T15:35:27;2.42;;;2.08;;
63653;SDS011;49809;47.418;19.080;2022-07-22T15:38:45;2.55;;;2.28;;
63653;SDS011;49809;47.418;19.080;2022-07-22T15:41:48;4.03;;;2.50;;
63653;SDS011;49809;47.418;19.080;2022-07-22T15:44:56;2.33;;;1.98;;
63653;SDS011;49809;47.418;19.080;2022-07-22T15:47:59;2.50;;;2.30;;
63653;SDS011;49809;47.418;19.080;2022-07-22T15:51:02;3.03;;;2.72;;
63653;SDS011;49809;47.418;19.080;2022-07-22T15:54:05;3.33;;;1.83;;
63653;SDS011;49809;47.418;19.080;2022-07-22T15:57:13;2.50;;;2.30;;
63653;SDS011;49809;47.418;19.080;2022-07-22T16:00:35;3.00;;;2.30;;
63653;SDS011;49809;47.418;19.080;2022-07-22T16:03:39;2.20;;;2.00;;
63653;SDS011;49809;47.418;19.080;2022-07-22T16:06:44;2.62;;;2.15;;
63653;SDS011;49809;47.418;19.080;2022-07-22T16:09:50;2.65;;;2.20;;
63653;SDS011;49809;47.418;19.080;2022-07-22T16:12:53;2.40;;;2.20;;
63653;SDS011;49809;47.418;19.080;2022-07-22T16:15:58;4.20;;;2.33;;
63653;SDS011;49809;47.418;19.080;2022-07-22T16:19:01;2.80;;;2.12;;
63653;SDS011;49809;47.418;19.080;2022-07-22T16:22:08;3.53;;;2.30;;
63653;SDS011;49809;47.418;19.080;2022-07-22T16:25:11;3.72;;;2.28;;
63653;SDS011;49809;47.418;19.080;2022-07-22T16:28:15;3.42;;;2.15;;
63653;SDS011;49809;47.418;19.080;2022-07-22T16:31:18;2.58;;;2.25;;
63653;SDS011;49809;47.418;19.080;2022-07-22T16:34:28;6.75;;;2.55;;
63653;SDS011;49809;47.418;19.080;2022-07-22T16:37:37;2.45;;;2.25;;
63653;SDS011;49809;47.418;19.080;2022-07-22T16:40:41;2.80;;;2.40;;
63653;SDS011;49809;47.418;19.080;2022-07-22T16:43:46;3.85;;;2.50;;
63653;SDS011;49809;47.418;19.080;2022-07-22T16:49:53;2.12;;;1.92;;
63653;SDS011;49809;47.418;19.080;2022-07-22T16:52:56;6.45;;;2.53;;
63653;SDS011;49809;47.418;19.080;2022-07-22T16:56:01;6.68;;;2.28;;
63653;SDS011;49809;47.418;19.080;2022-07-22T17:02:08;5.30;;;2.30;;
63653;SDS011;49809;47.418;19.080;2022-07-22T17:05:15;5.82;;;2.78;;
63653;SDS011;49809;47.418;19.080;2022-07-22T17:11:26;7.00;;;2.78;;
63653;SDS011;49809;47.418;19.080;2022-07-22T17:14:32;3.12;;;2.28;;
63653;SDS011;49809;47.418;19.080;2022-07-22T17:17:37;4.80;;;2.50;;
63653;SDS011;49809;47.418;19.080;2022-07-22T17:20:43;3.90;;;2.40;;
63653;SDS011;49809;47.418;19.080;2022-07-22T17:23:49;2.65;;;2.20;;
63653;SDS011;49809;47.418;19.080;2022-07-22T17:26:57;3.62;;;2.30;;
63653;SDS011;49809;47.418;19.080;2022-07-22T17:30:00;9.30;;;3.08;;
63653;SDS011;49809;47.418;19.080;2022-07-22T17:33:03;3.60;;;2.40;;
63653;SDS011;49809;47.418;19.080;2022-07-22T17:36:13;3.00;;;2.08;;
63653;SDS011;49809;47.418;19.080;2022-07-22T17:39:15;2.40;;;2.20;;
63653;SDS011;49809;47.418;19.080;2022-07-22T17:42:31;3.15;;;2.62;;
63653;SDS011;49809;47.418;19.080;2022-07-22T17:45:34;3.62;;;2.65;;
63653;SDS011;49809;47.418;19.080;2022-07-22T17:48:37;3.08;;;2.50;;
63653;SDS011;49809;47.418;19.080;2022-07-22T17:51:41;3.03;;;2.25;;
63653;SDS011;49809;47.418;19.080;2022-07-22T17:54:44;2.90;;;2.15;;
63653;SDS011;49809;47.418;19.080;2022-07-22T17:57:48;2.67;;;2.10;;
63653;SDS011;49809;47.418;19.080;2022-07-22T18:00:53;3.15;;;2.47;;
63653;SDS011;49809;47.418;19.080;2022-07-22T18:03:59;5.40;;;2.87;;
63653;SDS011;49809;47.418;19.080;2022-07-22T18:07:01;4.03;;;2.72;;
63653;SDS011;49809;47.418;19.080;2022-07-22T18:10:06;5.62;;;3.00;;
63653;SDS011;49809;47.418;19.080;2022-07-22T18:13:09;4.05;;;2.90;;
63653;SDS011;49809;47.418;19.080;2022-07-22T18:16:15;3.87;;;2.53;;
63653;SDS011;49809;47.418;19.080;2022-07-22T18:19:25;3.00;;;2.37;;
63653;SDS011;49809;47.418;19.080;2022-07-22T18:22:29;3.65;;;2.37;;
63653;SDS011;49809;47.418;19.080;2022-07-22T18:25:32;2.40;;;2.20;;
63653;SDS011;49809;47.418;19.080;2022-07-22T18:28:36;2.75;;;2.15;;
63653;SDS011;49809;47.418;19.080;2022-07-22T18:31:39;3.87;;;2.20;;
63653;SDS011;49809;47.418;19.080;2022-07-22T18:34:44;3.75;;;2.40;;
63653;SDS011;49809;47.418;19.080;2022-07-22T18:37:48;3.62;;;2.33;;
63653;SDS011;49809;47.418;19.080;2022-07-22T18:40:51;3.35;;;2.22;;
63653;SDS011;49809;47.418;19.080;2022-07-22T18:43:54;5.20;;;2.50;;
63653;SDS011;49809;47.418;19.080;2022-07-22T18:46:58;4.28;;;2.70;;
63653;SDS011;49809;47.418;19.080;2022-07-22T18:50:04;4.75;;;2.80;;
63653;SDS011;49809;47.418;19.080;2022-07-22T18:53:08;6.07;;;3.35;;
63653;SDS011;49809;47.418;19.080;2022-07-22T18:56:11;5.57;;;3.05;;
63653;SDS011;49809;47.418;19.080;2022-07-22T18:59:15;3.85;;;2.80;;
63653;SDS011;49809;47.418;19.080;2022-07-22T19:02:17;2.58;;;2.33;;
63653;SDS011;49809;47.418;19.080;2022-07-22T19:05:21;6.05;;;2.55;;
63653;SDS011;49809;47.418;19.080;2022-07-22T19:08:24;3.05;;;2.35;;
63653;SDS011;49809;47.418;19.080;2022-07-22T19:11:28;4.95;;;2.75;;
63653;SDS011;49809;47.418;19.080;2022-07-22T19:14:30;4.53;;;2.60;;
63653;SDS011;49809;47.418;19.080;2022-07-22T19:17:40;3.95;;;3.00;;
63653;SDS011;49809;47.418;19.080;2022-07-22T19:20:43;4.93;;;2.90;;
63653;SDS011;49809;47.418;19.080;2022-07-22T19:23:49;8.07;;;2.85;;
63653;SDS011;49809;47.418;19.080;2022-07-22T19:26:52;5.87;;;2.90;;
63653;SDS011;49809;47.418;19.080;2022-07-22T19:29:56;7.25;;;2.78;;
63653;SDS011;49809;47.418;19.080;2022-07-22T19:33:01;5.30;;;3.10;;
63653;SDS011;49809;47.418;19.080;2022-07-22T19:36:05;3.33;;;2.80;;
63653;SDS011;49809;47.418;19.080;2022-07-22T19:39:08;5.07;;;3.15;;
63653;SDS011;49809;47.418;19.080;2022-07-22T19:42:12;16.62;;;5.18;;
63653;SDS011;49809;47.418;19.080;2022-07-22T19:45:16;4.47;;;3.25;;
63653;SDS011;49809;47.418;19.080;2022-07-22T19:48:20;3.78;;;2.95;;
63653;SDS011;49809;47.418;19.080;2022-07-22T19:51:38;4.95;;;3.20;;
63653;SDS011;49809;47.418;19.080;2022-07-22T19:54:42;7.57;;;2.95;;
63653;SDS011;49809;47.418;19.080;2022-07-22T19:57:46;4.68;;;3.28;;
63653;SDS011;49809;47.418;19.080;2022-07-22T20:01:02;4.20;;;3.05;;
63653;SDS011;49809;47.418;19.080;2022-07-22T20:04:05;5.37;;;3.20;;
63653;SDS011;49809;47.418;19.080;2022-07-22T20:07:08;6.40;;;3.22;;
63653;SDS011;49809;47.418;19.080;2022-07-22T20:10:20;4.80;;;3.30;;
63653;SDS011;49809;47.418;19.080;2022-07-22T20:13:28;5.30;;;3.20;;
63653;SDS011;49809;47.418;19.080;2022-07-22T20:16:31;5.70;;;2.90;;
63653;SDS011;49809;47.418;19.080;2022-07-22T20:19:36;5.43;;;3.10;;
63653;SDS011;49809;47.418;19.080;2022-07-22T20:22:41;5.60;;;3.50;;
63653;SDS011;49809;47.418;19.080;2022-07-22T20:25:44;4.20;;;3.22;;
63653;SDS011;49809;47.418;19.080;2022-07-22T20:28:47;4.18;;;3.05;;
63653;SDS011;49809;47.418;19.080;2022-07-22T20:31:52;4.30;;;3.37;;
63653;SDS011;49809;47.418;19.080;2022-07-22T20:35:00;6.05;;;3.20;;
63653;SDS011;49809;47.418;19.080;2022-07-22T20:38:05;4.75;;;3.37;;
63653;SDS011;49809;47.418;19.080;2022-07-22T20:41:15;3.55;;;3.10;;
63653;SDS011;49809;47.418;19.080;2022-07-22T20:44:18;3.47;;;3.00;;
63653;SDS011;49809;47.418;19.080;2022-07-22T20:47:21;4.32;;;3.10;;
63653;SDS011;49809;47.418;19.080;2022-07-22T20:50:27;6.22;;;3.17;;